Time;durP1;ratioP1;P1;durP2;ratioP2;P2;SDS_P1;SDS_P2;PMS_P1;PMS_P2;Temp;Humidity;BMP_temperature;BMP_pressure;BME280_temperature;BME280_humidity;BME280_pressure;Samples;Min_cycle;Max_cycle;Signal;HPM_P1;HPM_P2
2021/07/01 00:01:14;;;;;;;6.07;3.92;;;21.80;53.50;;;;;;4900668;29;20178;-79
2021/07/01 00:03:43;;;;;;;5.57;3.85;;;21.80;53.50;;;;;;4884274;29;20182;-79
2021/07/01 00:06:09;;;;;;;5.47;3.72;;;21.80;53.50;;;;;;4883660;29;20668;-81
2021/07/01 00:08:43;;;;;;;4.32;3.38;;;21.80;53.50;;;;;;4932220;29;20177;-80
2021/07/01 00:11:13;;;;;;;4.47;3.58;;;21.80;53.50;;;;;;4900096;29;20181;-80
2021/07/01 00:13:39;;;;;;;5.10;3.53;;;21.80;53.50;;;;;;4884525;29;20182;-80
2021/07/01 00:16:05;;;;;;;4.65;3.10;;;21.80;53.50;;;;;;4932357;29;20253;-79
2021/07/01 00:18:31;;;;;;;5.35;3.75;;;21.80;53.50;;;;;;4947751;29;20169;-79
2021/07/01 00:21:02;;;;;;;4.90;3.53;;;21.90;53.60;;;;;;4932265;29;20175;-79
2021/07/01 00:23:31;;;;;;;5.35;3.83;;;21.90;53.60;;;;;;4884459;29;20182;-80
2021/07/01 00:25:57;;;;;;;5.65;3.70;;;21.80;53.50;;;;;;4884367;29;20276;-80
2021/07/01 00:28:23;;;;;;;5.38;3.55;;;21.90;53.60;;;;;;4931506;29;20174;-79
2021/07/01 00:30:49;;;;;;;5.38;3.53;;;21.90;53.60;;;;;;4931714;29;20602;-82
2021/07/01 00:33:15;;;;;;;5.40;3.47;;;21.80;53.50;;;;;;4947283;29;20225;-79
2021/07/01 00:35:45;;;;;;;5.32;3.67;;;21.80;53.50;;;;;;4932093;29;20265;-79
2021/07/01 00:38:11;;;;;;;4.65;3.55;;;21.80;53.50;;;;;;4899953;29;20186;-79
2021/07/01 00:40:37;;;;;;;4.53;3.40;;;21.90;53.60;;;;;;4931582;29;20241;-79
2021/07/01 00:43:03;;;;;;;5.53;3.92;;;21.80;53.50;;;;;;4947818;29;20170;-80
2021/07/01 00:45:29;;;;;;;5.55;3.65;;;21.90;53.70;;;;;;4931555;29;20532;-80
2021/07/01 00:47:55;;;;;;;6.20;3.88;;;21.80;53.50;;;;;;4947747;29;20168;-79
2021/07/01 00:50:21;;;;;;;5.88;3.65;;;21.80;53.60;;;;;;4931524;29;20534;-80
2021/07/01 00:52:47;;;;;;;5.32;3.65;;;21.80;53.60;;;;;;4947361;29;20190;-79
2021/07/01 00:55:13;;;;;;;5.78;3.63;;;21.90;53.60;;;;;;4930906;29;20201;-79
2021/07/01 00:57:43;;;;;;;5.63;3.45;;;21.80;53.60;;;;;;4947030;29;20529;-81
2021/07/01 01:03:03;;;;;;;4.60;3.28;;;21.90;53.70;;;;;;4907137;29;20202;-81
2021/07/01 01:05:29;;;;;;;5.57;3.45;;;21.90;53.60;;;;;;4899403;29;20201;-80
2021/07/01 01:08:01;;;;;;;5.60;3.33;;;21.80;53.60;;;;;;4932863;29;20257;-82
2021/07/01 01:10:31;;;;;;;5.35;3.65;;;21.90;53.60;;;;;;4887087;29;20244;-79
2021/07/01 01:13:04;;;;;;;5.13;3.63;;;21.80;54.30;;;;;;4917934;29;20665;-79
2021/07/01 01:15:30;;;;;;;5.45;3.42;;;21.80;53.60;;;;;;4903009;29;20213;-80
2021/07/01 01:18:01;;;;;;;5.22;3.58;;;21.90;53.70;;;;;;4950982;29;20157;-80
2021/07/01 01:20:27;;;;;;;5.70;3.85;;;21.90;53.70;;;;;;4902667;29;20186;-79
2021/07/01 01:22:57;;;;;;;4.20;3.40;;;21.90;53.70;;;;;;4934415;29;20727;-79
2021/07/01 01:25:28;;;;;;;5.63;3.83;;;21.90;53.70;;;;;;4886961;29;20261;-80
2021/07/01 01:27:54;;;;;;;5.63;3.42;;;21.80;53.70;;;;;;4918078;29;20277;-79
2021/07/01 01:30:20;;;;;;;5.35;3.75;;;21.90;53.70;;;;;;4951187;29;20282;-81
2021/07/01 01:32:50;;;;;;;4.50;3.30;;;21.90;53.70;;;;;;4950337;29;20159;-80
2021/07/01 01:35:16;;;;;;;5.03;3.63;;;21.90;53.70;;;;;;4887262;29;20218;-80
2021/07/01 01:37:41;;;;;;;5.55;3.50;;;21.90;53.70;;;;;;4951036;29;20196;-79
2021/07/01 01:40:12;;;;;;;5.32;3.70;;;21.80;53.70;;;;;;4950081;29;20173;-80
2021/07/01 01:42:40;;;;;;;5.63;3.72;;;21.90;53.80;;;;;;4887060;29;20258;-79
2021/07/01 01:45:06;;;;;;;5.15;3.60;;;21.90;53.80;;;;;;4934618;29;20178;-81
2021/07/01 01:47:32;;;;;;;4.65;3.42;;;21.90;53.80;;;;;;4950231;29;20205;-79
2021/07/01 01:50:02;;;;;;;5.03;3.33;;;21.90;53.80;;;;;;4934421;29;20186;-79
2021/07/01 01:52:28;;;;;;;5.28;3.78;;;21.90;53.80;;;;;;4886823;29;20543;-79
2021/07/01 01:54:54;;;;;;;4.80;3.47;;;21.90;53.80;;;;;;4933519;29;20201;-80
2021/07/01 01:57:26;;;;;;;5.47;3.92;;;21.90;53.80;;;;;;4951544;29;20162;-81
2021/07/01 01:59:52;;;;;;;5.07;3.58;;;21.90;53.70;;;;;;4950352;29;20170;-80
2021/07/01 02:02:22;;;;;;;5.07;3.70;;;21.90;53.80;;;;;;4934796;29;20233;-80
2021/07/01 02:04:48;;;;;;;5.22;3.45;;;21.90;53.80;;;;;;4886300;29;20190;-80
2021/07/01 02:07:14;;;;;;;4.63;3.40;;;21.90;53.80;;;;;;4949607;29;20610;-80
2021/07/01 02:09:43;;;;;;;4.57;3.72;;;21.90;53.80;;;;;;4950117;29;20174;-79
2021/07/01 02:12:09;;;;;;;5.65;3.70;;;21.90;53.80;;;;;;4901906;29;20253;-80
2021/07/01 02:14:35;;;;;;;5.30;3.72;;;21.90;53.90;;;;;;4949406;29;20212;-81
2021/07/01 02:17:06;;;;;;;5.10;3.70;;;21.90;53.80;;;;;;4933725;29;20178;-81
2021/07/01 02:19:36;;;;;;;4.75;3.45;;;21.90;53.80;;;;;;4901179;29;20202;-81
2021/07/01 02:22:02;;;;;;;5.35;3.58;;;21.90;53.80;;;;;;4901167;29;20246;-80
2021/07/01 02:24:35;;;;;;;5.70;3.60;;;21.90;53.80;;;;;;4933468;29;20178;-79
2021/07/01 02:27:05;;;;;;;5.35;3.60;;;21.90;53.80;;;;;;4885989;29;20186;-80
2021/07/01 02:29:31;;;;;;;5.15;3.40;;;21.90;53.90;;;;;;4886072;29;20214;-79
2021/07/01 02:31:57;;;;;;;5.22;3.50;;;21.90;53.80;;;;;;4949225;29;20249;-80
2021/07/01 02:34:23;;;;;;;4.72;3.42;;;21.90;53.90;;;;;;4949083;29;20210;-81
2021/07/01 02:36:53;;;;;;;4.75;3.25;;;21.90;53.90;;;;;;4950275;29;20190;-80
2021/07/01 02:39:23;;;;;;;4.93;3.47;;;21.90;53.90;;;;;;4901682;29;20664;-80
2021/07/01 02:41:55;;;;;;;4.95;3.22;;;21.80;53.90;;;;;;4885499;29;20213;-80
2021/07/01 02:44:21;;;;;;;4.32;3.40;;;21.90;53.90;;;;;;4884669;29;20209;-79
2021/07/01 02:46:47;;;;;;;4.70;3.38;;;21.90;53.90;;;;;;4932954;29;20174;-79
2021/07/01 02:49:19;;;;;;;4.63;3.35;;;21.90;53.90;;;;;;4933047;29;20189;-81
2021/07/01 02:51:45;;;;;;;5.13;3.60;;;21.90;53.80;;;;;;4884924;29;20201;-79
2021/07/01 02:54:15;;;;;;;4.93;3.55;;;21.90;53.90;;;;;;4948926;29;20194;-80
2021/07/01 02:56:41;;;;;;;4.97;3.17;;;21.90;53.90;;;;;;4901269;29;20178;-80
2021/07/01 02:59:08;;;;;;;4.53;3.50;;;21.90;53.90;;;;;;4933737;29;20197;-79
2021/07/01 03:01:34;;;;;;;4.93;3.50;;;21.90;53.90;;;;;;4932612;29;20166;-79
2021/07/01 03:04:01;;;;;;;5.05;3.67;;;21.80;53.90;;;;;;4948918;29;20163;-82
2021/07/01 03:06:32;;;;;;;5.05;3.60;;;21.90;53.90;;;;;;4948343;29;20158;-80
2021/07/01 03:09:02;;;;;;;5.10;3.50;;;21.90;53.90;;;;;;4885424;29;20185;-79
2021/07/01 03:11:34;;;;;;;4.63;3.40;;;21.90;53.90;;;;;;4885455;29;20208;-81
2021/07/01 03:14:01;;;;;;;4.88;3.53;;;21.90;53.90;;;;;;4915771;29;20209;-79
2021/07/01 03:16:27;;;;;;;5.10;3.53;;;21.80;53.90;;;;;;4932351;29;20198;-82
2021/07/01 03:18:57;;;;;;;4.95;3.55;;;21.90;53.90;;;;;;4949706;29;20166;-80
2021/07/01 03:21:27;;;;;;;4.85;3.42;;;21.90;53.90;;;;;;4885157;29;20615;-80
2021/07/01 03:23:53;;;;;;;5.65;3.90;;;21.90;54.00;;;;;;4900602;29;20186;-80
2021/07/01 03:26:19;;;;;;;4.97;3.63;;;21.90;53.90;;;;;;4948094;29;20547;-79
2021/07/01 03:28:49;;;;;;;4.93;3.58;;;21.90;53.90;;;;;;4948241;29;20170;-79
2021/07/01 03:31:15;;;;;;;5.22;3.67;;;21.90;54.00;;;;;;4899533;29;20253;-80
2021/07/01 03:33:41;;;;;;;4.50;3.47;;;21.90;54.00;;;;;;4947741;29;20178;-81
2021/07/01 03:36:07;;;;;;;4.82;3.25;;;21.90;54.00;;;;;;4948926;29;20214;-79
2021/07/01 03:38:33;;;;;;;4.50;3.45;;;21.90;54.00;;;;;;4948792;29;20173;-81
2021/07/01 03:40:59;;;;;;;5.32;3.50;;;21.90;54.00;;;;;;4947273;29;20154;-80
2021/07/01 03:43:37;;;;;;;5.05;3.20;;;21.90;54.00;;;;;;4931261;29;20163;-82
2021/07/01 03:46:03;;;;;;;4.97;3.50;;;21.90;54.00;;;;;;4916286;29;20181;-80
2021/07/01 03:48:29;;;;;;;4.68;3.50;;;21.90;54.00;;;;;;4948350;29;20162;-79
2021/07/01 03:50:55;;;;;;;5.20;3.58;;;21.90;54.10;;;;;;4947067;29;20562;-80
2021/07/01 03:53:32;;;;;;;5.78;3.90;;;21.90;54.00;;;;;;5123578;27;20911;-80
2021/07/01 03:55:59;;;;;;;4.30;3.17;;;21.90;54.00;;;;;;5123355;28;20155;-80
2021/07/01 03:58:30;;;;;;;4.40;3.28;;;21.80;54.00;;;;;;5139654;28;20585;-82
2021/07/01 04:01:00;;;;;;;5.55;3.55;;;21.80;54.00;;;;;;5088269;28;20176;-80
2021/07/01 04:03:26;;;;;;;5.80;3.50;;;21.90;54.10;;;;;;5139330;27;20286;-80
2021/07/01 04:05:52;;;;;;;4.72;3.47;;;21.90;54.00;;;;;;5140141;28;20168;-80
2021/07/01 04:08:19;;;;;;;3.70;2.92;;;21.90;54.00;;;;;;5122217;28;20191;-80
2021/07/01 04:10:49;;;;;;;5.22;3.47;;;21.90;54.10;;;;;;5122263;28;20191;-81
2021/07/01 04:13:21;;;;;;;4.03;3.00;;;21.80;54.10;;;;;;5104859;28;20220;-80
2021/07/01 04:15:47;;;;;;;3.80;2.90;;;21.90;54.30;;;;;;5121584;27;20204;-80
2021/07/01 04:18:14;;;;;;;4.47;3.10;;;21.90;54.50;;;;;;5121694;28;20152;-81
2021/07/01 04:20:40;;;;;;;3.97;2.83;;;21.80;54.60;;;;;;5104606;28;20189;-80
2021/07/01 04:23:07;;;;;;;3.95;2.85;;;21.80;54.90;;;;;;5121909;28;20163;-81
2021/07/01 04:25:33;;;;;;;4.35;2.70;;;21.70;55.10;;;;;;5122200;28;20243;-81
2021/07/01 04:27:59;;;;;;;3.00;2.47;;;21.60;55.10;;;;;;5120809;28;20611;-81
2021/07/01 04:30:26;;;;;;;3.60;2.50;;;21.60;55.40;;;;;;5105423;28;20172;-80
2021/07/01 04:32:56;;;;;;;3.40;2.53;;;21.50;55.60;;;;;;5104726;28;20259;-81
2021/07/01 04:35:22;;;;;;;3.83;2.58;;;21.50;55.70;;;;;;5139450;28;20188;-82
2021/07/01 04:37:48;;;;;;;3.40;2.60;;;21.50;55.80;;;;;;5122104;28;20156;-81
2021/07/01 04:40:20;;;;;;;3.63;2.58;;;21.40;56.00;;;;;;5104710;28;20215;-80
2021/07/01 04:42:49;;;;;;;3.83;2.63;;;21.40;56.10;;;;;;5103623;28;20214;-80
2021/07/01 04:45:19;;;;;;;3.13;2.45;;;21.40;56.20;;;;;;5103740;28;20191;-80
2021/07/01 04:47:50;;;;;;;3.47;2.65;;;21.40;56.20;;;;;;5087800;28;20180;-81
2021/07/01 04:50:21;;;;;;;4.05;2.70;;;21.30;56.40;;;;;;5103838;28;20677;-80
2021/07/01 04:52:47;;;;;;;4.07;2.70;;;21.30;56.40;;;;;;5120542;28;20235;-80
2021/07/01 04:55:13;;;;;;;3.53;2.58;;;21.30;56.40;;;;;;5121579;28;20178;-80
2021/07/01 04:57:43;;;;;;;3.42;2.67;;;21.30;57.20;;;;;;5121695;28;20507;-80
2021/07/01 05:00:10;;;;;;;3.05;2.30;;;21.20;56.60;;;;;;5102957;28;20176;-80
2021/07/01 05:02:35;;;;;;;3.40;2.25;;;21.20;56.70;;;;;;5120632;28;20164;-80
2021/07/01 05:05:06;;;;;;;2.80;2.15;;;21.20;56.90;;;;;;5106759;28;20165;-81
2021/07/01 05:07:47;;;;;;;3.85;2.50;;;21.20;57.00;;;;;;5106538;28;20173;-81
2021/07/01 05:10:17;;;;;;;2.83;2.42;;;21.20;57.00;;;;;;5076278;28;20203;-80
2021/07/01 05:12:48;;;;;;;3.50;2.35;;;21.20;57.10;;;;;;5073547;28;20221;-80
2021/07/01 05:15:17;;;;;;;2.83;2.40;;;21.20;57.10;;;;;;5107028;28;20187;-82
2021/07/01 05:17:43;;;;;;;2.83;2.13;;;21.20;57.10;;;;;;5091134;28;20187;-81
2021/07/01 05:20:16;;;;;;;3.35;2.17;;;21.20;57.30;;;;;;5107663;28;20156;-80
2021/07/01 05:22:44;;;;;;;2.47;1.98;;;21.10;57.30;;;;;;5072637;28;20518;-80
2021/07/01 05:25:13;;;;;;;2.28;1.90;;;21.10;57.40;;;;;;5090904;28;20407;-80
2021/07/01 05:27:39;;;;;;;2.80;2.13;;;21.10;57.50;;;;;;5106844;28;20172;-81
2021/07/01 05:30:09;;;;;;;2.88;2.05;;;21.10;57.40;;;;;;5107178;28;20600;-80
2021/07/01 05:32:39;;;;;;;3.20;2.20;;;21.10;57.50;;;;;;5087905;28;20687;-81
2021/07/01 05:35:11;;;;;;;2.75;2.20;;;21.20;57.50;;;;;;5106668;28;20187;-84
2021/07/01 05:37:37;;;;;;;2.90;2.40;;;21.20;57.60;;;;;;5073431;28;20185;-84
2021/07/01 05:40:15;;;;;;;2.42;2.05;;;21.10;57.60;;;;;;5092662;28;20237;-81
2021/07/01 05:42:45;;;;;;;2.70;2.05;;;21.20;57.70;;;;;;5108813;28;20647;-86
2021/07/01 05:45:15;;;;;;;2.20;1.98;;;21.10;57.70;;;;;;5092961;28;20181;-83
2021/07/01 05:47:42;;;;;;;2.92;2.30;;;21.10;57.80;;;;;;5126048;28;20184;-81
2021/07/01 05:50:13;;;;;;;2.70;2.10;;;21.10;57.80;;;;;;5092340;28;20180;-82
2021/07/01 05:52:49;;;;;;;2.75;2.15;;;21.10;57.90;;;;;;5104481;28;20224;-82
2021/07/01 05:55:15;;;;;;;2.25;1.83;;;21.10;58.00;;;;;;5120438;28;20184;-83
2021/07/01 05:57:41;;;;;;;2.10;1.88;;;21.10;58.00;;;;;;5106909;28;20153;-81
2021/07/01 06:00:13;;;;;;;1.90;1.70;;;21.10;58.00;;;;;;5103894;28;20161;-81
2021/07/01 06:02:44;;;;;;;2.60;2.00;;;21.10;58.00;;;;;;5085769;28;20646;-79
2021/07/01 06:05:10;;;;;;;2.75;2.17;;;21.10;58.10;;;;;;5085963;28;20186;-82
2021/07/01 06:07:42;;;;;;;2.80;2.05;;;21.10;58.10;;;;;;5105250;28;20176;-83
2021/07/01 06:10:12;;;;;;;2.20;1.88;;;21.10;58.00;;;;;;5085911;28;20185;-82
2021/07/01 06:12:38;;;;;;;3.55;1.95;;;21.10;58.20;;;;;;5085741;28;20212;-82
2021/07/01 06:15:05;;;;;;;2.85;1.90;;;21.10;58.30;;;;;;5101598;28;20149;-79
2021/07/01 06:17:35;;;;;;;2.92;2.05;;;21.10;58.40;;;;;;5107301;28;20161;-80
2021/07/01 06:20:02;;;;;;;2.83;2.03;;;21.00;58.40;;;;;;5067134;28;20268;-84
2021/07/01 06:22:29;;;;;;;2.17;1.70;;;21.10;58.50;;;;;;5082203;28;20167;-84
2021/07/01 06:24:56;;;;;;;2.42;2.03;;;21.10;58.50;;;;;;5098344;28;20203;-84
2021/07/01 06:27:29;;;;;;;4.15;1.90;;;21.00;58.50;;;;;;5081139;28;20186;-83
2021/07/01 06:29:55;;;;;;;3.70;1.95;;;21.10;58.50;;;;;;5098347;28;20523;-82
2021/07/01 06:32:21;;;;;;;2.83;1.70;;;21.00;58.60;;;;;;5097865;28;20192;-81
2021/07/01 06:34:47;;;;;;;3.15;2.05;;;21.10;58.90;;;;;;5080974;28;20183;-83
2021/07/01 06:37:13;;;;;;;3.25;2.22;;;21.10;59.20;;;;;;5079325;28;20671;-84
2021/07/01 06:39:42;;;;;;;2.78;2.20;;;21.10;59.40;;;;;;5098965;28;20503;-84
2021/07/01 06:42:12;;;;;;;2.58;2.08;;;21.10;59.70;;;;;;5059067;28;20173;-84
2021/07/01 06:44:38;;;;;;;4.13;2.20;;;21.10;59.50;;;;;;5096289;28;20308;-82
2021/07/01 06:47:20;;;;;;;2.47;1.90;;;21.00;59.50;;;;;;5103351;28;20149;-84
2021/07/01 06:50:08;;;;;;;;;;;;;;;;;;;;;
2021/07/01 06:52:44;;;;;;;2.88;1.63;;;21.10;59.70;;;;;;5070290;28;20225;-83
2021/07/01 06:55:12;;;;;;;2.45;2.00;;;21.10;59.60;;;;;;5054810;28;20154;-84
2021/07/01 06:57:39;;;;;;;2.63;2.13;;;21.10;59.60;;;;;;5038612;28;20161;-85
2021/07/01 07:00:11;;;;;;;3.90;2.00;;;21.20;59.60;;;;;;5038927;28;20162;-85
2021/07/01 07:02:37;;;;;;;3.40;1.95;;;21.10;59.60;;;;;;5024510;28;20189;-83
2021/07/01 07:05:10;;;;;;;1.95;1.67;;;21.20;59.50;;;;;;5057940;28;20185;-84
2021/07/01 07:07:50;;;;;;;2.55;1.95;;;21.20;59.50;;;;;;5058947;28;20181;-84
2021/07/01 07:13:41;;;;;;;2.33;1.98;;;21.20;59.20;;;;;;5078179;28;20192;-82
2021/07/01 07:19:47;;;;;;;3.42;2.00;;;21.20;59.20;;;;;;5078904;28;20183;-83
2021/07/01 07:23:31;;;;;;;2.03;1.77;;;21.20;59.30;;;;;;5012918;28;20177;-83
2021/07/01 07:30:21;;;;;;;2.42;1.80;;;21.30;59.40;;;;;;5058305;28;20185;-84
2021/07/01 07:33:06;;;;;;;1.98;1.75;;;21.30;60.10;;;;;;4953783;29;20219;-83
2021/07/01 07:35:40;;;;;;;2.35;1.88;;;21.30;59.30;;;;;;4938814;29;20181;-83
2021/07/01 07:38:33;;;;;;;;;;;;;;;;;;;;;
2021/07/01 07:41:17;;;;;;;2.67;1.75;;;21.30;59.40;;;;;;4884480;29;20191;-83
2021/07/01 07:43:55;;;;;;;1.98;1.70;;;21.40;59.40;;;;;;4878915;29;20774;-83
2021/07/01 07:46:41;;;;;;;2.38;1.88;;;21.40;59.50;;;;;;4864909;29;20198;-84
2021/07/01 07:49:42;;;;;;;2.10;1.90;;;21.40;59.30;;;;;;4835841;29;20235;-84
2021/07/01 07:52:10;;;;;;;2.53;2.08;;;21.50;59.00;;;;;;4853035;29;20782;-83
2021/07/01 07:54:50;;;;;;;2.65;2.15;;;21.50;58.60;;;;;;4877865;29;20188;-83
2021/07/01 07:57:20;;;;;;;1.95;1.77;;;21.60;58.60;;;;;;4847152;29;20712;-83
2021/07/01 08:00:10;;;;;;;3.03;1.95;;;21.60;58.40;;;;;;4862848;29;20560;-83
2021/07/01 08:02:46;;;;;;;2.75;2.10;;;21.60;58.40;;;;;;4896870;29;20292;-84
2021/07/01 08:05:22;;;;;;;3.40;2.35;;;21.60;58.40;;;;;;4901296;29;20194;-83
2021/07/01 08:08:16;;;;;;;2.33;2.10;;;21.70;58.00;;;;;;4914026;28;20177;-84
2021/07/01 08:10:48;;;;;;;2.60;2.08;;;21.70;58.00;;;;;;4974208;28;20180;-84
2021/07/01 08:13:14;;;;;;;2.95;2.10;;;21.70;57.90;;;;;;5011033;28;20242;-83
2021/07/01 08:15:40;;;;;;;2.35;2.15;;;21.70;57.90;;;;;;5012465;28;20257;-84
2021/07/01 08:18:07;;;;;;;3.53;2.20;;;21.70;57.80;;;;;;5017866;28;20163;-83
2021/07/01 08:20:33;;;;;;;2.78;2.15;;;21.70;57.80;;;;;;5016687;28;20183;-84
2021/07/01 08:23:00;;;;;;;2.40;2.03;;;21.80;57.70;;;;;;5030883;28;20241;-83
2021/07/01 08:25:26;;;;;;;2.78;2.10;;;21.90;57.60;;;;;;5014241;28;20178;-84
2021/07/01 08:27:53;;;;;;;2.50;2.10;;;21.90;57.50;;;;;;5030810;28;20186;-84
2021/07/01 08:30:21;;;;;;;3.92;2.22;;;21.90;57.50;;;;;;5014376;28;20174;-84
2021/07/01 08:32:48;;;;;;;4.85;2.15;;;22.00;57.30;;;;;;5014106;28;20187;-84
2021/07/01 08:35:16;;;;;;;2.95;2.30;;;22.00;57.30;;;;;;4998082;28;20167;-83
2021/07/01 08:37:45;;;;;;;3.35;2.20;;;22.00;57.10;;;;;;5030843;28;20179;-83
2021/07/01 08:40:13;;;;;;;2.50;2.05;;;22.00;57.10;;;;;;5017611;28;20208;-84
2021/07/01 08:42:39;;;;;;;3.10;2.10;;;22.00;57.10;;;;;;5054123;28;20173;-84
2021/07/01 08:45:07;;;;;;;2.53;2.20;;;22.00;57.20;;;;;;5057487;28;20168;-83
2021/07/01 08:47:35;;;;;;;2.50;2.22;;;22.00;57.10;;;;;;5040952;28;20181;-84
2021/07/01 08:50:04;;;;;;;2.72;2.00;;;22.20;57.10;;;;;;5057308;28;20553;-83
2021/07/01 08:52:31;;;;;;;2.00;1.80;;;22.10;57.00;;;;;;5073554;28;20252;-84
2021/07/01 08:55:02;;;;;;;4.63;2.20;;;22.10;56.80;;;;;;5057396;28;20169;-84
2021/07/01 08:57:31;;;;;;;2.40;2.20;;;22.10;57.00;;;;;;5057245;28;20173;-83
2021/07/01 09:00:13;;;;;;;2.90;2.00;;;22.10;57.10;;;;;;5056912;28;20652;-83
2021/07/01 09:02:45;;;;;;;2.90;1.95;;;22.10;56.90;;;;;;5057105;28;20192;-83
2021/07/01 09:05:15;;;;;;;2.20;2.00;;;22.10;56.80;;;;;;5057271;28;20177;-83
2021/07/01 09:07:42;;;;;;;2.25;2.05;;;22.10;56.90;;;;;;5073759;28;20166;-84
2021/07/01 09:10:14;;;;;;;3.67;2.20;;;22.20;56.80;;;;;;5075486;28;20251;-81
2021/07/01 09:12:42;;;;;;;3.58;2.20;;;22.20;56.70;;;;;;5040466;28;20268;-81
2021/07/01 09:15:09;;;;;;;2.60;2.10;;;22.30;56.60;;;;;;5057620;28;20537;-83
2021/07/01 09:17:35;;;;;;;3.22;2.35;;;22.30;56.50;;;;;;5074886;28;20173;-82
2021/07/01 09:20:04;;;;;;;2.55;2.10;;;22.30;56.50;;;;;;5059727;28;20648;-82
2021/07/01 09:22:34;;;;;;;2.50;2.17;;;22.30;56.60;;;;;;5077634;28;20149;-83
2021/07/01 09:25:40;;;;;;;3.90;2.53;;;22.30;56.60;;;;;;5058294;28;20185;-83
2021/07/01 09:28:28;;;;;;;2.55;1.90;;;22.20;56.70;;;;;;5075773;28;20617;-84
2021/07/01 09:31:10;;;;;;;2.75;2.10;;;22.20;56.80;;;;;;5074554;28;20256;-84
2021/07/01 09:33:39;;;;;;;2.85;2.25;;;22.20;56.70;;;;;;5057184;28;20224;-83
2021/07/01 09:36:28;;;;;;;2.25;2.05;;;22.30;56.70;;;;;;5057431;28;20178;-83
2021/07/01 09:38:57;;;;;;;2.75;1.92;;;22.30;56.60;;;;;;5056465;28;20204;-83
2021/07/01 09:41:29;;;;;;;2.88;2.35;;;22.30;56.50;;;;;;5075280;28;20150;-81
2021/07/01 09:44:02;;;;;;;4.07;2.28;;;22.30;56.50;;;;;;5057651;28;20703;-84
2021/07/01 09:46:29;;;;;;;3.33;2.28;;;22.30;56.50;;;;;;5056511;28;20292;-83
2021/07/01 09:48:58;;;;;;;2.47;2.28;;;22.30;56.40;;;;;;5075245;28;20153;-81
2021/07/01 09:51:26;;;;;;;2.63;2.25;;;22.40;56.30;;;;;;5075248;28;20196;-84
2021/07/01 09:53:52;;;;;;;2.85;2.40;;;22.40;56.40;;;;;;5091990;28;20281;-81
2021/07/01 09:56:37;;;;;;;3.95;2.55;;;22.40;56.20;;;;;;5093907;28;20161;-87
2021/07/01 09:59:03;;;;;;;2.50;2.30;;;22.30;56.20;;;;;;5094703;28;20152;-84
2021/07/01 10:01:32;;;;;;;2.83;2.53;;;22.40;56.50;;;;;;5094494;28;20145;-84
2021/07/01 10:04:00;;;;;;;3.63;2.45;;;22.30;56.60;;;;;;5094119;28;20153;-84
2021/07/01 10:06:26;;;;;;;3.72;2.47;;;22.30;56.60;;;;;;5094140;28;20160;-84
2021/07/01 10:08:52;;;;;;;2.90;2.45;;;22.30;56.50;;;;;;5096133;28;20161;-85
2021/07/01 10:11:42;;;;;;;4.10;2.30;;;22.40;56.50;;;;;;5094975;28;20184;-85
2021/07/01 10:14:15;;;;;;;3.42;2.30;;;22.30;56.60;;;;;;5094726;28;20240;-82
2021/07/01 10:16:41;;;;;;;2.80;2.50;;;22.40;56.50;;;;;;5060885;28;20216;-82
2021/07/01 10:19:08;;;;;;;2.90;2.30;;;22.30;56.40;;;;;;5093642;28;20521;-83
2021/07/01 10:21:35;;;;;;;2.78;2.47;;;22.40;56.40;;;;;;5078217;28;20633;-83
2021/07/01 10:24:16;;;;;;;3.50;2.40;;;22.40;56.30;;;;;;5095423;28;20244;-82
2021/07/01 10:26:44;;;;;;;3.15;2.30;;;22.40;56.20;;;;;;5095388;28;20157;-80
2021/07/01 10:29:10;;;;;;;5.40;2.67;;;22.50;56.10;;;;;;5078711;28;20195;-84
2021/07/01 10:31:58;;;;;;;2.67;2.25;;;22.50;56.20;;;;;;5095312;28;20185;-83
2021/07/01 10:34:25;;;;;;;3.40;2.63;;;22.40;56.20;;;;;;5077893;28;20168;-85
2021/07/01 10:37:22;;;;;;;2.78;2.20;;;22.50;56.20;;;;;;5094787;28;20196;-82
2021/07/01 10:39:53;;;;;;;4.30;2.47;;;22.50;56.00;;;;;;5094768;28;20176;-85
2021/07/01 10:42:19;;;;;;;2.90;2.55;;;22.50;56.20;;;;;;5043689;28;20180;-83
2021/07/01 10:44:45;;;;;;;4.25;2.60;;;22.60;56.00;;;;;;5095100;28;20171;-82
2021/07/01 10:47:33;;;;;;;2.95;2.47;;;22.60;56.00;;;;;;5093024;28;20639;-84
2021/07/01 10:50:00;;;;;;;3.50;2.60;;;22.60;56.00;;;;;;5094178;28;20169;-84
2021/07/01 10:52:37;;;;;;;2.35;2.15;;;22.50;56.00;;;;;;5080097;28;20220;-86
2021/07/01 10:55:03;;;;;;;2.90;2.28;;;22.50;55.90;;;;;;5094176;28;20153;-85
2021/07/01 10:57:29;;;;;;;2.75;2.38;;;22.60;55.90;;;;;;5096960;28;20153;-84
2021/07/01 11:00:00;;;;;;;3.15;2.33;;;22.60;55.80;;;;;;5097964;28;20232;-83
2021/07/01 11:02:28;;;;;;;3.30;2.45;;;22.50;56.00;;;;;;5060644;28;20689;-84
2021/07/01 11:04:57;;;;;;;3.65;2.70;;;22.50;56.10;;;;;;5095813;28;20149;-85
2021/07/01 11:07:26;;;;;;;2.70;2.47;;;22.50;56.00;;;;;;5098083;28;20607;-86
2021/07/01 11:09:59;;;;;;;3.03;2.40;;;22.60;55.60;;;;;;5100078;28;20156;-85
2021/07/01 11:12:26;;;;;;;3.45;2.53;;;22.60;55.70;;;;;;5065246;28;20238;-83
2021/07/01 11:14:55;;;;;;;2.53;2.10;;;22.60;55.80;;;;;;5102785;28;20157;-81
2021/07/01 11:17:35;;;;;;;2.55;2.15;;;22.60;55.60;;;;;;5082750;28;20161;-84
2021/07/01 11:20:17;;;;;;;2.80;2.33;;;22.70;55.70;;;;;;5100928;28;20172;-86
2021/07/01 11:22:47;;;;;;;3.88;2.38;;;22.70;55.50;;;;;;5101901;28;20608;-82
2021/07/01 11:25:34;;;;;;;3.58;2.30;;;22.70;55.40;;;;;;5085835;28;20314;-84
2021/07/01 11:28:13;;;;;;;3.53;2.50;;;22.70;55.50;;;;;;5103577;28;20169;-83
2021/07/01 11:30:46;;;;;;;4.13;2.38;;;22.70;55.50;;;;;;5099839;28;20235;-83
2021/07/01 11:33:15;;;;;;;2.75;2.40;;;22.70;55.50;;;;;;5099484;28;20200;-86
2021/07/01 11:35:41;;;;;;;7.65;2.65;;;22.70;55.60;;;;;;5085686;28;20187;-82
2021/07/01 11:38:32;;;;;;;3.33;2.60;;;22.70;55.60;;;;;;5085282;28;20160;-82
2021/07/01 11:41:04;;;;;;;7.75;2.70;;;22.70;55.50;;;;;;5088468;28;20160;-82
2021/07/01 11:43:31;;;;;;;7.72;2.70;;;22.70;55.40;;;;;;5084867;28;20631;-82
2021/07/01 11:45:59;;;;;;;8.98;2.72;;;22.80;55.40;;;;;;5103538;28;20153;-83
2021/07/01 11:48:30;;;;;;;8.98;3.13;;;22.70;55.50;;;;;;5104900;28;20263;-83
2021/07/01 11:51:02;;;;;;;8.05;3.38;;;22.60;55.50;;;;;;5087172;28;20187;-80
2021/07/01 11:53:30;;;;;;;8.55;2.60;;;22.70;55.70;;;;;;5087455;28;20216;-81
2021/07/01 11:55:58;;;;;;;6.07;2.75;;;22.70;55.70;;;;;;5103388;28;20202;-83
2021/07/01 11:58:27;;;;;;;6.47;2.45;;;22.70;55.60;;;;;;5087065;28;20172;-81
2021/07/01 12:00:59;;;;;;;7.93;2.53;;;22.70;55.70;;;;;;5087438;28;20181;-81
2021/07/01 12:03:28;;;;;;;6.88;2.42;;;22.70;55.70;;;;;;5082264;28;20568;-83
2021/07/01 12:05:57;;;;;;;6.60;2.42;;;22.70;55.90;;;;;;5069846;28;20599;-82
2021/07/01 12:08:25;;;;;;;8.40;2.72;;;22.60;55.80;;;;;;5069883;28;20185;-81
2021/07/01 12:11:10;;;;;;;3.53;2.38;;;22.70;55.80;;;;;;5069045;28;20671;-80
2021/07/01 12:13:40;;;;;;;4.63;2.50;;;22.70;55.80;;;;;;5087954;28;20216;-81
2021/07/01 12:16:12;;;;;;;10.48;2.80;;;22.70;55.60;;;;;;5073580;28;20216;-83
2021/07/01 12:18:59;;;;;;;7.55;2.53;;;22.70;56.20;;;;;;5073448;28;20181;-83
2021/07/01 12:21:30;;;;;;;4.68;2.63;;;22.70;55.70;;;;;;5073081;28;20177;-81
2021/07/01 12:23:59;;;;;;;8.32;2.67;;;22.70;55.80;;;;;;5087396;28;20184;-82
2021/07/01 12:26:36;;;;;;;4.68;2.75;;;22.70;55.90;;;;;;5056318;28;20192;-83
2021/07/01 12:29:08;;;;;;;7.30;2.80;;;22.70;55.80;;;;;;5090829;28;20192;-82
2021/07/01 12:31:37;;;;;;;7.53;2.80;;;22.70;55.90;;;;;;5073940;28;20230;-81
2021/07/01 12:34:08;;;;;;;6.57;2.78;;;22.70;55.80;;;;;;5123023;28;20170;-82
2021/07/01 12:36:42;;;;;;;5.47;2.70;;;22.80;55.80;;;;;;5128830;28;20218;-82
2021/07/01 12:39:12;;;;;;;4.80;2.47;;;22.80;55.80;;;;;;5129547;28;20152;-81
2021/07/01 12:41:40;;;;;;;11.25;2.70;;;22.80;55.70;;;;;;5129149;28;20167;-81
2021/07/01 12:44:13;;;;;;;8.90;2.50;;;22.90;55.60;;;;;;5128065;28;20166;-81
2021/07/01 12:47:11;;;;;;;7.70;2.50;;;22.80;55.80;;;;;;5070669;28;20185;-86
2021/07/01 12:49:50;;;;;;;7.68;2.92;;;22.90;55.70;;;;;;5070773;28;20211;-85
2021/07/01 12:52:19;;;;;;;5.85;2.60;;;22.80;55.80;;;;;;5048567;28;20666;-84
2021/07/01 12:54:53;;;;;;;5.80;2.88;;;22.80;55.80;;;;;;5056397;28;20257;-84
2021/07/01 12:57:22;;;;;;;5.43;2.88;;;22.90;55.90;;;;;;5070101;28;20188;-84
2021/07/01 12:59:48;;;;;;;6.78;2.85;;;22.80;55.90;;;;;;5086019;28;20161;-81
2021/07/01 13:02:18;;;;;;;7.45;2.72;;;22.80;55.90;;;;;;5067529;28;20197;-84
2021/07/01 13:04:53;;;;;;;7.80;2.65;;;22.80;56.00;;;;;;5062693;28;20245;-85
2021/07/01 13:07:27;;;;;;;5.43;2.72;;;22.90;55.90;;;;;;5086256;28;20161;-85
2021/07/01 13:09:57;;;;;;;5.60;2.65;;;22.90;56.00;;;;;;5033068;28;20271;-85
2021/07/01 13:12:31;;;;;;;6.70;2.85;;;22.90;55.90;;;;;;5008136;28;20212;-86
2021/07/01 13:15:03;;;;;;;6.90;3.08;;;22.90;56.00;;;;;;5024897;28;20288;-84
2021/07/01 13:17:34;;;;;;;6.03;3.10;;;22.80;55.90;;;;;;5024597;28;20208;-87
2021/07/01 13:20:06;;;;;;;5.20;2.53;;;22.90;56.00;;;;;;5027745;28;20181;-84